createdAt,value
2023-11-01T05:02:49.680Z,7.03
2023-11-01T05:05:21.845Z,2.83
2023-11-01T05:07:53.613Z,5.97
2023-11-01T05:10:25.349Z,3.90
2023-11-01T05:12:57.067Z,3.53
2023-11-01T05:15:28.774Z,5.37
2023-11-01T05:18:01.975Z,5.60
2023-11-01T05:20:33.898Z,5.30
2023-11-01T05:23:05.666Z,5.17
2023-11-01T05:25:37.379Z,4.30
2023-11-01T05:28:09.117Z,6.40
2023-11-01T05:30:41.003Z,4.23
2023-11-01T05:33:14.300Z,3.33
2023-11-01T05:35:46.466Z,5.17
2023-11-01T05:38:18.257Z,6.83
2023-11-01T05:40:50.012Z,8.63
2023-11-01T05:43:21.740Z,6.87
2023-11-01T05:45:53.469Z,6.73
2023-11-01T05:48:26.550Z,6.27
2023-11-01T05:50:58.369Z,4.70
2023-11-01T05:53:30.142Z,6.27
2023-11-01T05:56:09.437Z,4.37
2023-11-01T05:58:42.018Z,8.37
2023-11-01T06:01:13.761Z,6.07
2023-11-01T06:03:47.091Z,3.70
2023-11-01T06:06:18.876Z,7.63
2023-11-01T06:08:50.650Z,6.90
2023-11-01T06:11:22.388Z,4.00
2023-11-01T06:13:54.132Z,4.80
2023-11-01T06:16:25.925Z,4.77
2023-11-01T06:18:59.006Z,3.30
2023-11-01T06:21:30.733Z,7.50
2023-11-01T06:24:02.906Z,9.90
2023-11-01T06:26:34.776Z,4.20
2023-11-01T06:29:06.497Z,4.90
2023-11-01T06:31:38.220Z,3.53
2023-11-01T06:34:11.403Z,5.40
2023-11-01T06:36:43.165Z,7.60
2023-11-01T06:39:14.903Z,6.60
2023-11-01T06:41:46.666Z,5.57
2023-11-01T06:44:18.441Z,6.03
2023-11-01T06:46:50.325Z,5.17
2023-11-01T06:49:23.400Z,8.17
2023-11-01T06:51:55.186Z,5.93
2023-11-01T06:54:26.945Z,4.17
2023-11-01T06:56:58.737Z,7.93
2023-11-01T06:59:30.576Z,6.73
2023-11-01T07:02:03.417Z,6.50
2023-11-01T07:04:36.522Z,6.87
2023-11-01T07:07:09.308Z,8.87
2023-11-01T07:09:42.002Z,10.03
2023-11-01T07:12:13.821Z,6.63
2023-11-01T07:14:45.633Z,6.70
2023-11-01T07:17:17.459Z,10.13
2023-11-01T07:19:50.591Z,6.37
2023-11-01T07:22:22.306Z,8.93
2023-11-01T07:24:54.113Z,4.50
2023-11-01T07:27:25.831Z,6.33
2023-11-01T07:29:57.633Z,6.97
2023-11-01T07:32:29.425Z,4.60
2023-11-01T07:35:02.573Z,6.83
2023-11-01T07:37:34.321Z,6.80
2023-11-01T07:40:07.199Z,6.00
2023-11-01T07:42:38.918Z,8.83
2023-11-01T07:45:10.842Z,6.77
2023-11-01T07:47:42.633Z,9.50
2023-11-01T07:50:15.885Z,10.13
2023-11-01T07:52:47.601Z,8.77
2023-11-01T07:55:19.601Z,6.00
2023-11-01T07:57:51.312Z,6.90
2023-11-01T08:00:23.068Z,10.20
2023-11-01T08:02:54.998Z,6.10
2023-11-01T08:05:28.165Z,6.93
2023-11-01T08:07:59.924Z,7.03
2023-11-01T08:10:31.632Z,8.97
2023-11-01T08:13:03.373Z,8.30
2023-11-01T08:15:35.152Z,8.30
2023-11-01T08:18:06.961Z,6.53
2023-11-01T08:20:40.309Z,6.53
2023-11-01T08:23:12.064Z,5.30
2023-11-01T08:25:43.943Z,7.43
2023-11-01T08:28:15.650Z,8.97
2023-11-01T08:30:47.537Z,7.07
2023-11-01T08:33:19.377Z,6.33
2023-11-01T08:35:52.572Z,6.23
2023-11-01T08:38:24.349Z,10.67
2023-11-01T08:40:56.083Z,5.00
2023-11-01T08:43:27.800Z,10.87
2023-11-01T08:45:59.577Z,11.40
2023-11-01T08:48:31.513Z,7.35
2023-11-01T08:51:05.405Z,7.25
2023-11-01T08:53:37.209Z,9.88
2023-11-01T08:56:09.432Z,8.55
2023-11-01T08:58:41.144Z,9.10
2023-11-01T09:01:12.867Z,11.57
2023-11-01T09:03:44.716Z,10.77
2023-11-01T09:06:18.072Z,9.82
2023-11-01T09:08:49.833Z,9.05
2023-11-01T09:11:21.609Z,7.32
2023-11-01T09:13:53.330Z,8.18
2023-11-01T09:16:25.089Z,6.80
2023-11-01T09:18:56.813Z,8.05
2023-11-01T09:21:29.892Z,10.05
2023-11-01T09:24:01.671Z,6.53
2023-11-01T09:26:33.450Z,9.77
2023-11-01T09:29:05.268Z,8.80
2023-11-01T09:31:36.984Z,5.18
2023-11-01T09:34:08.914Z,8.02
2023-11-01T09:36:42.050Z,7.80
2023-11-01T09:39:13.830Z,4.32
2023-11-01T09:41:46.427Z,9.15
2023-11-01T09:44:18.528Z,6.65
2023-11-01T09:46:50.320Z,10.23
2023-11-01T09:49:22.125Z,6.07
2023-11-01T09:51:55.201Z,7.90
2023-11-01T09:54:26.930Z,12.82
2023-11-01T09:56:58.695Z,9.20
2023-11-01T09:59:30.562Z,5.07
2023-11-01T10:02:02.314Z,9.52
2023-11-01T10:04:34.109Z,6.10
2023-11-01T10:07:07.209Z,6.15
2023-11-01T10:09:39.071Z,9.07
2023-11-01T10:12:11.685Z,7.70
2023-11-01T10:14:43.798Z,10.95
2023-11-01T10:17:15.584Z,6.65
2023-11-01T10:19:47.292Z,4.70
2023-11-01T10:22:20.362Z,6.57
2023-11-01T10:24:52.129Z,9.82
2023-11-01T10:27:23.849Z,7.63
2023-11-01T10:29:56.032Z,6.78
2023-11-01T10:32:27.876Z,6.65
2023-11-01T10:35:10.456Z,7.45
2023-11-01T10:37:43.532Z,11.52
2023-11-01T10:40:15.330Z,6.95
2023-11-01T10:42:47.060Z,6.60
2023-11-01T10:45:18.829Z,5.72
2023-11-01T10:47:51.700Z,6.18
2023-11-01T10:50:23.557Z,4.63
2023-11-01T10:52:57.309Z,8.38
2023-11-01T10:55:29.050Z,7.45
2023-11-01T10:58:00.811Z,9.45
2023-11-01T11:00:35.407Z,7.55
2023-11-01T11:03:09.881Z,8.32
2023-11-01T11:05:41.888Z,6.28
2023-11-01T11:08:14.995Z,5.63
2023-11-01T11:10:46.707Z,6.78
2023-11-01T11:13:28.062Z,6.90
2023-11-01T11:15:59.824Z,5.13
2023-11-01T11:18:53.526Z,5.88
2023-11-01T11:21:53.429Z,5.32
2023-11-01T11:24:47.642Z,9.45
2023-11-01T11:27:50.509Z,9.90
2023-11-01T11:31:07.449Z,7.65
2023-11-01T11:33:54.781Z,10.52
2023-11-01T11:36:26.740Z,7.72
2023-11-01T11:38:59.109Z,9.35
2023-11-01T11:41:43.693Z,7.10
2023-11-01T11:44:15.569Z,6.47
2023-11-01T11:46:48.160Z,7.45
2023-11-01T11:49:23.674Z,8.60
2023-11-01T11:51:55.966Z,8.40
2023-11-01T11:54:28.277Z,10.43
2023-11-01T11:57:02.140Z,7.07
2023-11-01T11:59:33.936Z,11.75
2023-11-01T12:02:09.185Z,7.68
2023-11-01T12:04:41.635Z,7.72
2023-11-01T12:07:13.608Z,8.35
2023-11-01T12:09:47.789Z,8.93
2023-11-01T12:12:20.894Z,7.35
2023-11-01T12:14:57.335Z,9.65
2023-11-01T12:17:29.173Z,6.65
2023-11-01T12:20:00.963Z,7.75
2023-11-01T12:22:35.268Z,7.57
2023-11-01T12:25:07.051Z,8.50
2023-11-01T12:27:40.160Z,7.53
2023-11-01T12:30:20.647Z,10.02
2023-11-01T12:32:52.428Z,12.35
2023-11-01T12:35:24.169Z,8.65
2023-11-01T12:37:55.888Z,9.07
2023-11-01T12:40:27.731Z,9.35
2023-11-01T12:43:09.802Z,6.35
2023-11-01T12:45:41.564Z,6.97
2023-11-01T12:48:13.432Z,8.15
2023-11-01T12:50:45.220Z,5.60
2023-11-01T12:53:17.030Z,8.98
2023-11-01T12:55:48.733Z,9.23
2023-11-01T12:58:21.785Z,7.53
2023-11-01T13:00:53.526Z,7.72
2023-11-01T13:03:25.428Z,6.38
2023-11-01T13:05:57.231Z,11.13
2023-11-01T13:08:29.138Z,5.97
2023-11-01T13:11:00.961Z,6.05
2023-11-01T13:13:34.137Z,8.27
2023-11-01T13:16:06.318Z,9.40
2023-11-01T13:18:38.123Z,10.38
2023-11-01T13:21:09.997Z,12.68
2023-11-01T13:23:41.792Z,9.20
2023-11-01T13:26:15.689Z,12.45
2023-11-01T13:28:48.890Z,18.83
2023-11-01T13:31:20.676Z,54.17
2023-11-01T13:33:52.395Z,24.15
2023-11-01T13:36:24.164Z,47.63
2023-11-01T13:38:55.932Z,22.05
2023-11-01T13:41:27.882Z,28.33
2023-11-01T13:44:00.966Z,28.08
2023-11-01T13:46:32.701Z,20.95
2023-11-01T13:49:04.583Z,9.27
2023-11-01T13:51:36.520Z,8.45
2023-11-01T13:54:08.271Z,10.30
2023-11-01T13:56:40.031Z,8.32
2023-11-01T13:59:13.122Z,9.55
2023-11-01T14:01:44.813Z,7.60
2023-11-01T14:04:16.651Z,9.20
2023-11-01T14:06:48.437Z,13.35
2023-11-01T14:09:20.171Z,12.98
2023-11-01T14:11:52.691Z,11.32
2023-11-01T14:14:26.380Z,11.32
2023-11-01T14:16:58.073Z,7.13
2023-11-01T14:19:29.803Z,9.73
2023-11-01T14:22:01.498Z,9.05
2023-11-01T14:24:33.243Z,7.47
2023-11-01T14:27:05.052Z,11.52
2023-11-01T14:29:38.216Z,11.20
2023-11-01T14:32:10.072Z,9.73
2023-11-01T14:34:41.873Z,9.32
2023-11-01T14:37:13.750Z,11.63
2023-11-01T14:39:45.451Z,6.32
2023-11-01T14:42:17.179Z,9.90
2023-11-01T14:44:50.298Z,7.18
2023-11-01T14:47:22.015Z,17.37
2023-11-01T14:49:53.714Z,6.20
2023-11-01T14:52:25.457Z,7.20
2023-11-01T14:54:57.189Z,9.85
2023-11-01T14:57:28.905Z,5.18
2023-11-01T15:00:02.007Z,8.43
2023-11-01T15:02:34.114Z,3.80
2023-11-01T15:05:06.773Z,11.10
2023-11-01T15:07:38.466Z,8.43
2023-11-01T15:10:10.533Z,9.13
2023-11-01T15:12:42.259Z,10.55
2023-11-01T15:15:15.451Z,10.43
2023-11-01T15:17:47.220Z,8.45
2023-11-01T15:20:19.013Z,9.25
2023-11-01T15:22:50.735Z,8.30
2023-11-01T15:25:22.469Z,8.10
2023-11-01T15:27:54.196Z,7.20
2023-11-01T15:30:27.280Z,5.33
2023-11-01T15:32:59.083Z,7.43
2023-11-01T15:35:30.830Z,7.47
2023-11-01T15:38:02.553Z,8.47
2023-11-01T15:40:34.269Z,7.70
2023-11-01T15:43:05.996Z,9.80
2023-11-01T15:45:39.059Z,7.87
2023-11-01T15:48:10.925Z,7.68
2023-11-01T15:50:43.057Z,7.75
2023-11-01T15:53:14.988Z,7.32
2023-11-01T15:55:46.738Z,6.90
2023-11-01T15:58:18.499Z,7.70
2023-11-01T16:00:51.624Z,7.53
2023-11-01T16:03:23.388Z,9.00
2023-11-01T16:05:55.272Z,8.07
2023-11-01T16:08:26.993Z,8.30
2023-11-01T16:10:59.832Z,6.10
2023-11-01T16:13:31.577Z,5.87
2023-11-01T16:16:05.625Z,6.03
2023-11-01T16:18:37.467Z,4.47
2023-11-01T16:21:09.242Z,4.22
2023-11-01T16:23:41.050Z,5.57
2023-11-01T16:26:12.836Z,5.97
2023-11-01T16:28:44.579Z,7.07
2023-11-01T16:31:17.663Z,3.97
2023-11-01T16:33:49.478Z,5.63
2023-11-01T16:36:21.261Z,2.80
2023-11-01T16:38:53.005Z,3.03
2023-11-01T16:41:24.775Z,3.63
2023-11-01T16:43:56.586Z,3.97
2023-11-01T16:46:29.679Z,3.08
2023-11-01T16:49:01.442Z,3.53
2023-11-01T16:51:33.838Z,2.30
2023-11-01T16:54:05.944Z,3.22
2023-11-01T16:56:37.707Z,3.20
2023-11-01T16:59:09.481Z,4.70
2023-11-01T17:01:42.653Z,5.20
2023-11-01T17:04:14.644Z,3.90
2023-11-01T17:06:46.430Z,2.58
2023-11-01T17:09:18.194Z,5.55
2023-11-01T17:11:50.004Z,1.85
2023-11-01T17:14:21.870Z,3.83
2023-11-01T17:16:54.987Z,2.92
2023-11-01T17:19:26.721Z,3.08
2023-11-01T17:21:58.448Z,2.38
2023-11-01T17:24:30.172Z,2.10
2023-11-01T17:27:01.921Z,4.10
2023-11-01T17:29:34.059Z,3.05
2023-11-01T17:32:07.523Z,4.70
2023-11-01T17:34:39.332Z,2.65
2023-11-01T17:37:11.033Z,2.53
2023-11-01T17:39:42.755Z,4.60
2023-11-01T17:42:14.468Z,3.55
2023-11-01T17:44:46.234Z,2.47
2023-11-01T17:47:25.181Z,3.47
2023-11-01T17:49:57.014Z,5.67
2023-11-01T17:52:33.361Z,3.53
2023-11-01T17:55:06.681Z,3.47
2023-11-01T17:57:38.673Z,2.00
2023-11-01T18:00:11.372Z,3.67
2023-11-01T18:03:25.373Z,2.85
2023-11-01T18:05:57.194Z,3.53
2023-11-01T18:08:29.749Z,2.50
2023-11-01T18:11:02.093Z,3.20
2023-11-01T18:13:34.399Z,1.60
2023-11-01T18:16:07.253Z,3.27
2023-11-01T18:18:44.500Z,4.43
2023-11-01T18:21:19.088Z,3.10
2023-11-01T18:23:53.548Z,3.07
2023-11-01T18:26:25.814Z,2.07
2023-11-01T18:28:58.524Z,2.53
2023-11-01T18:31:30.952Z,4.77
2023-11-01T18:34:04.654Z,2.40
2023-11-01T18:36:37.595Z,3.97
2023-11-01T18:39:09.413Z,1.93
2023-11-01T18:41:41.960Z,3.60
2023-11-01T18:44:22.222Z,6.20
2023-11-01T18:46:54.365Z,2.27
2023-11-01T18:49:49.615Z,3.40
2023-11-01T18:52:23.675Z,6.37
2023-11-01T18:54:56.925Z,4.77
2023-11-01T18:57:28.934Z,6.40
2023-11-01T19:00:00.803Z,7.87
2023-11-01T19:03:02.579Z,2.90
2023-11-01T19:05:35.998Z,3.93
2023-11-01T19:08:07.903Z,3.90
2023-11-01T19:10:39.623Z,3.20
2023-11-01T19:13:11.345Z,5.28
2023-11-01T19:16:10.626Z,4.73
2023-11-01T19:18:42.990Z,2.93
2023-11-01T19:21:16.203Z,3.80
2023-11-01T19:23:47.964Z,4.80
2023-11-01T19:26:19.741Z,3.00
2023-11-01T19:28:51.451Z,3.97
2023-11-01T19:31:23.218Z,4.90
2023-11-01T19:33:54.995Z,3.63
2023-11-01T19:36:28.124Z,4.03
2023-11-01T19:38:59.931Z,4.07
2023-11-01T19:41:31.771Z,3.27
2023-11-01T19:44:03.498Z,4.90
2023-11-01T19:46:35.230Z,6.17
2023-11-01T19:49:07.009Z,5.37
2023-11-01T19:51:40.099Z,6.30
2023-11-01T19:54:11.872Z,8.87
2023-11-01T19:56:43.604Z,8.93
2023-11-01T19:59:15.397Z,5.97
2023-11-01T20:01:47.127Z,3.67
2023-11-01T20:04:18.885Z,4.67
2023-11-01T20:06:51.954Z,3.13
2023-11-01T20:09:23.679Z,5.43
2023-11-01T20:11:55.409Z,5.83
2023-11-01T20:14:27.193Z,6.80
2023-11-01T20:16:58.930Z,7.77
2023-11-01T20:19:30.674Z,6.77
2023-11-01T20:22:04.054Z,7.70
2023-11-01T20:24:35.776Z,6.00
2023-11-01T20:27:07.498Z,4.27
2023-11-01T20:29:39.217Z,4.57
2023-11-01T20:32:10.956Z,6.10
2023-11-01T20:34:42.655Z,4.43
2023-11-01T20:37:15.705Z,5.43
2023-11-01T20:39:47.477Z,5.37
2023-11-01T20:42:19.220Z,5.40
2023-11-01T20:44:51.118Z,5.10
2023-11-01T20:47:22.968Z,3.27
2023-11-01T20:49:54.690Z,3.13
2023-11-01T20:52:28.028Z,3.00
2023-11-01T20:54:59.729Z,4.50
2023-11-01T20:57:31.481Z,5.03
2023-11-01T21:00:03.533Z,4.30
2023-11-01T21:02:35.285Z,5.07
2023-11-01T21:05:07.619Z,5.90
2023-11-01T21:07:40.804Z,4.37
2023-11-01T21:10:12.537Z,4.83
2023-11-01T21:12:46.409Z,3.70
2023-11-01T21:15:18.510Z,5.27
2023-11-01T21:17:50.372Z,4.20
2023-11-01T21:20:22.174Z,3.73
2023-11-01T21:22:55.236Z,6.87
2023-11-01T21:25:26.980Z,3.97
2023-11-01T21:27:58.678Z,4.23
2023-11-01T21:30:30.357Z,5.53
2023-11-01T21:33:02.158Z,10.33
2023-11-01T21:35:37.091Z,2.43
2023-11-01T21:38:10.902Z,3.63
2023-11-01T21:40:45.796Z,4.23
2023-11-01T21:43:17.518Z,4.30
2023-11-01T21:45:50.333Z,4.40
2023-11-01T21:48:22.925Z,4.87
2023-11-01T21:50:58.459Z,4.47
2023-11-01T21:53:32.173Z,3.80
2023-11-01T21:56:04.504Z,5.67
2023-11-01T21:58:36.321Z,2.90
2023-11-01T22:01:08.076Z,4.50
2023-11-01T22:03:40.748Z,5.33
2023-11-01T22:06:13.454Z,2.63
2023-11-01T22:09:13.054Z,4.37
2023-11-01T22:11:46.318Z,4.43
2023-11-01T22:14:29.433Z,4.47
2023-11-01T22:17:01.650Z,2.10
2023-11-01T22:19:34.691Z,4.40
2023-11-01T22:22:10.002Z,4.90
2023-11-01T22:24:43.798Z,3.23
2023-11-01T22:27:16.837Z,4.17
2023-11-01T22:29:49.373Z,2.37
2023-11-01T22:32:22.372Z,5.17
2023-11-01T22:34:54.248Z,3.83
2023-11-01T22:37:26.513Z,5.77
2023-11-01T22:39:59.557Z,4.63
2023-11-01T22:42:31.790Z,3.57
2023-11-01T22:45:04.112Z,3.27
2023-11-01T22:47:35.947Z,4.73
2023-11-01T22:50:08.170Z,2.50
2023-11-01T22:52:39.903Z,4.93
2023-11-01T22:55:13.044Z,3.47
2023-11-01T22:57:44.750Z,5.10
